Terminal Aerodrome Forecast
Issued by NWS Shreveport, LA

Home | Current Version | Previous Version | Text Only | Print | Product List | Glossary On
Versions: 1 2 3 4 5 6 7 8 9 10 11 12 13 14 15 16 17 18
000
FTUS44 KSHV 280500 RRA
TAFTXK
TAF
KTXK 280548Z 2806/2906 30008KT P6SM OVC006
      TEMPO 2806/2809 SCT006 OVC010
     FM280900 34006KT P6SM BKN010 OVC020
     FM281100 35006KT 5SM BR VCSH OVC007
      TEMPO 2811/2813 3SM -SHRA BR OVC006
     FM281500 35004KT 4SM BR OVC015
     FM281800 36006KT P6SM OVC015
     FM282200 03003KT P6SM OVC020
     FM290400 05003KT P6SM OVC050=

USA.gov is the U.S. government's official web portal to all federal, state and local government web resources and services.